sensor_id;sensor_type;location;lat;lon;timestamp;pressure;altitude;pressure_sealevel;temperature;humidity
29569;BME280;16501;51.462;14.346;2024-01-27T00:02:18;101228.88;;;4.10;100.00
29569;BME280;16501;51.462;14.346;2024-01-27T00:04:43;101216.66;;;4.01;100.00
29569;BME280;16501;51.462;14.346;2024-01-27T00:07:08;101232.84;;;4.06;100.00
29569;BME280;16501;51.462;14.346;2024-01-27T00:09:33;101228.94;;;4.00;100.00
29569;BME280;16501;51.462;14.346;2024-01-27T00:11:59;101245.50;;;4.14;100.00
29569;BME280;16501;51.462;14.346;2024-01-27T00:14:24;101221.81;;;3.95;100.00
29569;BME280;16501;51.462;14.346;2024-01-27T00:16:49;101238.44;;;3.99;100.00
29569;BME280;16501;51.462;14.346;2024-01-27T00:19:15;101235.63;;;4.06;100.00
29569;BME280;16501;51.462;14.346;2024-01-27T00:21:40;101241.59;;;4.08;100.00
29569;BME280;16501;51.462;14.346;2024-01-27T00:24:05;101228.19;;;3.95;100.00
29569;BME280;16501;51.462;14.346;2024-01-27T00:26:30;101203.25;;;3.77;100.00
29569;BME280;16501;51.462;14.346;2024-01-27T00:28:56;101234.88;;;4.02;100.00
29569;BME280;16501;51.462;14.346;2024-01-27T00:31:21;101240.03;;;4.00;100.00
29569;BME280;16501;51.462;14.346;2024-01-27T00:33:46;101245.94;;;4.05;100.00
29569;BME280;16501;51.462;14.346;2024-01-27T00:36:12;101252.72;;;4.04;100.00
29569;BME280;16501;51.462;14.346;2024-01-27T00:38:37;101234.16;;;3.90;100.00
29569;BME280;16501;51.462;14.346;2024-01-27T00:41:04;101263.41;;;3.99;100.00
29569;BME280;16501;51.462;14.346;2024-01-27T00:43:29;101233.75;;;3.92;100.00
29569;BME280;16501;51.462;14.346;2024-01-27T00:45:55;101247.59;;;3.99;100.00
29569;BME280;16501;51.462;14.346;2024-01-27T00:48:20;101260.63;;;4.06;100.00
29569;BME280;16501;51.462;14.346;2024-01-27T00:50:45;101243.22;;;3.94;100.00
29569;BME280;16501;51.462;14.346;2024-01-27T00:53:10;101249.53;;;3.99;100.00
29569;BME280;16501;51.462;14.346;2024-01-27T00:55:36;101261.06;;;4.01;100.00
29569;BME280;16501;51.462;14.346;2024-01-27T00:58:01;101257.84;;;4.06;100.00
29569;BME280;16501;51.462;14.346;2024-01-27T01:00:26;101250.31;;;4.06;100.00
29569;BME280;16501;51.462;14.346;2024-01-27T01:02:51;101238.50;;;3.84;100.00
29569;BME280;16501;51.462;14.346;2024-01-27T01:05:17;101256.75;;;3.85;100.00
29569;BME280;16501;51.462;14.346;2024-01-27T01:07:42;101268.22;;;3.94;100.00
29569;BME280;16501;51.462;14.346;2024-01-27T01:10:07;101257.13;;;3.87;100.00
29569;BME280;16501;51.462;14.346;2024-01-27T01:12:33;101264.25;;;3.88;100.00
29569;BME280;16501;51.462;14.346;2024-01-27T01:14:58;101283.25;;;3.93;100.00
29569;BME280;16501;51.462;14.346;2024-01-27T01:17:23;101251.59;;;3.84;100.00
29569;BME280;16501;51.462;14.346;2024-01-27T01:19:49;101278.13;;;3.95;100.00
29569;BME280;16501;51.462;14.346;2024-01-27T01:22:16;101283.69;;;3.95;100.00
29569;BME280;16501;51.462;14.346;2024-01-27T01:24:41;101259.16;;;3.72;100.00
29569;BME280;16501;51.462;14.346;2024-01-27T01:27:07;101274.59;;;3.84;100.00
29569;BME280;16501;51.462;14.346;2024-01-27T01:29:32;101265.09;;;3.78;100.00
29569;BME280;16501;51.462;14.346;2024-01-27T01:31:57;101270.22;;;3.87;100.00
29569;BME280;16501;51.462;14.346;2024-01-27T01:34:22;101263.56;;;3.66;100.00
29569;BME280;16501;51.462;14.346;2024-01-27T01:36:48;101268.66;;;3.82;100.00
29569;BME280;16501;51.462;14.346;2024-01-27T01:39:13;101265.91;;;3.75;100.00
29569;BME280;16501;51.462;14.346;2024-01-27T01:41:39;101281.34;;;3.76;100.00
29569;BME280;16501;51.462;14.346;2024-01-27T01:44:05;101292.84;;;3.74;100.00
29569;BME280;16501;51.462;14.346;2024-01-27T01:46:30;101258.03;;;3.55;100.00
29569;BME280;16501;51.462;14.346;2024-01-27T01:48:56;101297.22;;;3.72;100.00
29569;BME280;16501;51.462;14.346;2024-01-27T01:51:22;101273.09;;;3.54;100.00
29569;BME280;16501;51.462;14.346;2024-01-27T01:53:48;101294.06;;;3.63;100.00
29569;BME280;16501;51.462;14.346;2024-01-27T01:56:14;101248.97;;;3.37;100.00
29569;BME280;16501;51.462;14.346;2024-01-27T01:58:40;101287.72;;;3.58;100.00
29569;BME280;16501;51.462;14.346;2024-01-27T02:01:05;101272.34;;;3.43;100.00
29569;BME280;16501;51.462;14.346;2024-01-27T02:03:30;101318.66;;;3.61;100.00
29569;BME280;16501;51.462;14.346;2024-01-27T02:05:56;101325.75;;;3.65;100.00
29569;BME280;16501;51.462;14.346;2024-01-27T02:08:21;101305.19;;;3.55;100.00
29569;BME280;16501;51.462;14.346;2024-01-27T02:10:47;101290.91;;;3.50;100.00
29569;BME280;16501;51.462;14.346;2024-01-27T02:13:19;101284.19;;;3.54;100.00
29569;BME280;16501;51.462;14.346;2024-01-27T02:15:45;101296.88;;;3.52;100.00
29569;BME280;16501;51.462;14.346;2024-01-27T02:18:11;101309.91;;;3.62;100.00
29569;BME280;16501;51.462;14.346;2024-01-27T02:20:36;101308.75;;;3.52;100.00
29569;BME280;16501;51.462;14.346;2024-01-27T02:23:02;101307.56;;;3.61;100.00
29569;BME280;16501;51.462;14.346;2024-01-27T02:25:29;101330.53;;;3.50;100.00
29569;BME280;16501;51.462;14.346;2024-01-27T02:27:55;101297.28;;;3.47;100.00
29569;BME280;16501;51.462;14.346;2024-01-27T02:30:20;101309.13;;;3.54;100.00
29569;BME280;16501;51.462;14.346;2024-01-27T02:32:45;101309.13;;;3.54;100.00
29569;BME280;16501;51.462;14.346;2024-01-27T02:35:10;101305.97;;;3.59;100.00
29569;BME280;16501;51.462;14.346;2024-01-27T02:37:36;101303.19;;;3.59;100.00
29569;BME280;16501;51.462;14.346;2024-01-27T02:40:02;101313.88;;;3.61;100.00
29569;BME280;16501;51.462;14.346;2024-01-27T02:42:27;101302.00;;;3.50;100.00
29569;BME280;16501;51.462;14.346;2024-01-27T02:44:53;101293.31;;;3.44;100.00
29569;BME280;16501;51.462;14.346;2024-01-27T02:47:18;101307.56;;;3.43;100.00
29569;BME280;16501;51.462;14.346;2024-01-27T02:49:43;101317.06;;;3.56;100.00
29569;BME280;16501;51.462;14.346;2024-01-27T02:52:08;101281.84;;;3.38;100.00
29569;BME280;16501;51.462;14.346;2024-01-27T02:54:34;101323.00;;;3.51;100.00
29569;BME280;16501;51.462;14.346;2024-01-27T02:56:59;101307.56;;;3.32;100.00
29569;BME280;16501;51.462;14.346;2024-01-27T02:59:24;101272.75;;;3.09;100.00
29569;BME280;16501;51.462;14.346;2024-01-27T03:01:50;101298.06;;;3.26;100.00
29569;BME280;16501;51.462;14.346;2024-01-27T03:04:15;101325.00;;;3.39;100.00
29569;BME280;16501;51.462;14.346;2024-01-27T03:06:40;101341.63;;;3.50;100.00
29569;BME280;16501;51.462;14.346;2024-01-27T03:09:05;101283.84;;;3.09;100.00
29569;BME280;16501;51.462;14.346;2024-01-27T03:11:31;101327.38;;;3.34;100.00
29569;BME280;16501;51.462;14.346;2024-01-27T03:13:56;101315.13;;;3.20;100.00
29569;BME280;16501;51.462;14.346;2024-01-27T03:16:21;101328.16;;;3.27;100.00
29569;BME280;16501;51.462;14.346;2024-01-27T03:18:46;101328.16;;;3.16;100.00
29569;BME280;16501;51.462;14.346;2024-01-27T03:21:12;101323.00;;;3.22;100.00
29569;BME280;16501;51.462;14.346;2024-01-27T03:23:37;101331.34;;;3.11;100.00
29569;BME280;16501;51.462;14.346;2024-01-27T03:26:03;101305.59;;;2.93;100.00
29569;BME280;16501;51.462;14.346;2024-01-27T03:28:29;101333.31;;;3.21;100.00
29569;BME280;16501;51.462;14.346;2024-01-27T03:30:54;101323.41;;;3.06;100.00
29569;BME280;16501;51.462;14.346;2024-01-27T03:33:19;101340.03;;;3.17;100.00
29569;BME280;16501;51.462;14.346;2024-01-27T03:35:45;101327.38;;;3.01;100.00
29569;BME280;16501;51.462;14.346;2024-01-27T03:38:10;101338.47;;;2.98;100.00
29569;BME280;16501;51.462;14.346;2024-01-27T03:40:35;101317.88;;;2.92;100.00
29569;BME280;16501;51.462;14.346;2024-01-27T03:43:00;101314.72;;;2.97;100.00
29569;BME280;16501;51.462;14.346;2024-01-27T03:45:26;101324.63;;;3.01;100.00
29569;BME280;16501;51.462;14.346;2024-01-27T03:47:51;101338.06;;;3.21;100.00
29569;BME280;16501;51.462;14.346;2024-01-27T03:50:16;101336.88;;;3.11;100.00
29569;BME280;16501;51.462;14.346;2024-01-27T03:52:42;101334.88;;;3.08;100.00
29569;BME280;16501;51.462;14.346;2024-01-27T03:55:07;101357.47;;;3.17;100.00
29569;BME280;16501;51.462;14.346;2024-01-27T03:57:32;101357.09;;;3.15;100.00
29569;BME280;16501;51.462;14.346;2024-01-27T03:59:58;101359.03;;;3.15;100.00
29569;BME280;16501;51.462;14.346;2024-01-27T04:02:23;101369.34;;;3.11;100.00
29569;BME280;16501;51.462;14.346;2024-01-27T04:04:48;101348.34;;;3.06;100.00
29569;BME280;16501;51.462;14.346;2024-01-27T04:07:13;101379.25;;;3.12;100.00
29569;BME280;16501;51.462;14.346;2024-01-27T04:09:38;101345.97;;;3.01;100.00
29569;BME280;16501;51.462;14.346;2024-01-27T04:12:04;101385.19;;;3.17;100.00
29569;BME280;16501;51.462;14.346;2024-01-27T04:14:30;101339.25;;;2.91;100.00
29569;BME280;16501;51.462;14.346;2024-01-27T04:16:55;101369.34;;;3.07;100.00
29569;BME280;16501;51.462;14.346;2024-01-27T04:19:20;101382.41;;;3.14;100.00
29569;BME280;16501;51.462;14.346;2024-01-27T04:21:48;101368.13;;;3.08;100.00
29569;BME280;16501;51.462;14.346;2024-01-27T04:24:13;101389.53;;;3.18;100.00
29569;BME280;16501;51.462;14.346;2024-01-27T04:26:38;101389.53;;;3.26;100.00
29569;BME280;16501;51.462;14.346;2024-01-27T04:29:03;101375.28;;;3.09;100.00
29569;BME280;16501;51.462;14.346;2024-01-27T04:31:29;101403.00;;;3.31;100.00
29569;BME280;16501;51.462;14.346;2024-01-27T04:33:56;101349.56;;;2.98;100.00
29569;BME280;16501;51.462;14.346;2024-01-27T04:36:28;101399.44;;;3.30;100.00
29569;BME280;16501;51.462;14.346;2024-01-27T04:38:54;101391.13;;;3.30;100.00
29569;BME280;16501;51.462;14.346;2024-01-27T04:41:20;101378.06;;;3.13;100.00
29569;BME280;16501;51.462;14.346;2024-01-27T04:43:45;101395.91;;;3.23;100.00
29569;BME280;16501;51.462;14.346;2024-01-27T04:46:10;101416.06;;;3.23;100.00
29569;BME280;16501;51.462;14.346;2024-01-27T04:48:35;101425.19;;;3.27;100.00
29569;BME280;16501;51.462;14.346;2024-01-27T04:51:01;101432.72;;;3.34;100.00
29569;BME280;16501;51.462;14.346;2024-01-27T04:53:26;101397.06;;;3.18;100.00
29569;BME280;16501;51.462;14.346;2024-01-27T04:55:51;101429.16;;;3.40;100.00
29569;BME280;16501;51.462;14.346;2024-01-27T04:58:16;101432.72;;;3.37;100.00
29569;BME280;16501;51.462;14.346;2024-01-27T05:00:42;101405.00;;;3.19;100.00
29569;BME280;16501;51.462;14.346;2024-01-27T05:03:07;101387.56;;;3.15;100.00
29569;BME280;16501;51.462;14.346;2024-01-27T05:05:40;101406.59;;;3.28;100.00
29569;BME280;16501;51.462;14.346;2024-01-27T05:08:06;101421.63;;;3.30;100.00
29569;BME280;16501;51.462;14.346;2024-01-27T05:10:31;101423.63;;;3.33;100.00
29569;BME280;16501;51.462;14.346;2024-01-27T05:12:56;101412.91;;;3.35;100.00
29569;BME280;16501;51.462;14.346;2024-01-27T05:15:22;101420.06;;;3.40;100.00
29569;BME280;16501;51.462;14.346;2024-01-27T05:17:47;101387.56;;;3.30;100.00
29569;BME280;16501;51.462;14.346;2024-01-27T05:20:12;101378.88;;;3.28;100.00
29569;BME280;16501;51.462;14.346;2024-01-27T05:22:37;101400.66;;;3.29;100.00
29569;BME280;16501;51.462;14.346;2024-01-27T05:25:03;101411.31;;;3.24;100.00
29569;BME280;16501;51.462;14.346;2024-01-27T05:27:29;101403.38;;;3.18;100.00
29569;BME280;16501;51.462;14.346;2024-01-27T05:29:55;101421.63;;;3.34;100.00
29569;BME280;16501;51.462;14.346;2024-01-27T05:32:20;101406.56;;;3.13;100.00
29569;BME280;16501;51.462;14.346;2024-01-27T05:34:45;101408.16;;;3.14;100.00
29569;BME280;16501;51.462;14.346;2024-01-27T05:37:10;101438.25;;;3.34;100.00
29569;BME280;16501;51.462;14.346;2024-01-27T05:39:36;101428.72;;;3.17;100.00
29569;BME280;16501;51.462;14.346;2024-01-27T05:42:01;101414.06;;;3.06;100.00
29569;BME280;16501;51.462;14.346;2024-01-27T05:44:26;101438.25;;;3.23;100.00
29569;BME280;16501;51.462;14.346;2024-01-27T05:46:51;101431.94;;;3.23;100.00
29569;BME280;16501;51.462;14.346;2024-01-27T05:49:17;101433.88;;;3.11;100.00
29569;BME280;16501;51.462;14.346;2024-01-27T05:51:42;101456.88;;;3.26;100.00
29569;BME280;16501;51.462;14.346;2024-01-27T05:54:08;101448.16;;;3.20;100.00
29569;BME280;16501;51.462;14.346;2024-01-27T05:56:35;101446.56;;;3.19;100.00
29569;BME280;16501;51.462;14.346;2024-01-27T05:59:01;101476.66;;;3.25;100.00
29569;BME280;16501;51.462;14.346;2024-01-27T06:01:26;101443.78;;;3.12;100.00
29569;BME280;16501;51.462;14.346;2024-01-27T06:03:52;101453.69;;;3.20;100.00
29569;BME280;16501;51.462;14.346;2024-01-27T06:06:17;101468.75;;;3.19;100.00
29569;BME280;16501;51.462;14.346;2024-01-27T06:08:42;101486.56;;;3.26;100.00
29569;BME280;16501;51.462;14.346;2024-01-27T06:11:08;101462.72;;;2.99;100.00
29569;BME280;16501;51.462;14.346;2024-01-27T06:13:33;101472.28;;;3.13;100.00
29569;BME280;16501;51.462;14.346;2024-01-27T06:15:59;101497.63;;;3.15;100.00
29569;BME280;16501;51.462;14.346;2024-01-27T06:18:24;101491.28;;;3.11;100.00
29569;BME280;16501;51.462;14.346;2024-01-27T06:20:50;101510.31;;;3.19;100.00
29569;BME280;16501;51.462;14.346;2024-01-27T06:23:15;101471.09;;;3.03;100.00
29569;BME280;16501;51.462;14.346;2024-01-27T06:25:40;101496.03;;;3.07;100.00
29569;BME280;16501;51.462;14.346;2024-01-27T06:28:06;101519.00;;;3.14;100.00
29569;BME280;16501;51.462;14.346;2024-01-27T06:30:31;101497.94;;;2.95;100.00
29569;BME280;16501;51.462;14.346;2024-01-27T06:32:56;101515.84;;;3.12;100.00
29569;BME280;16501;51.462;14.346;2024-01-27T06:35:22;101522.16;;;3.13;100.00
29569;BME280;16501;51.462;14.346;2024-01-27T06:37:47;101524.94;;;3.09;100.00
29569;BME280;16501;51.462;14.346;2024-01-27T06:40:12;101507.06;;;2.96;100.00
29569;BME280;16501;51.462;14.346;2024-01-27T06:42:38;101539.19;;;3.18;100.00
29569;BME280;16501;51.462;14.346;2024-01-27T06:45:03;101529.28;;;3.03;100.00
29569;BME280;16501;51.462;14.346;2024-01-27T06:47:29;101554.25;;;3.14;100.00
29569;BME280;16501;51.462;14.346;2024-01-27T06:49:57;101549.47;;;3.11;100.00
29569;BME280;16501;51.462;14.346;2024-01-27T06:52:22;101544.28;;;3.02;100.00
29569;BME280;16501;51.462;14.346;2024-01-27T06:54:47;101536.00;;;3.06;100.00
29569;BME280;16501;51.462;14.346;2024-01-27T06:57:20;101535.59;;;3.00;100.00
29569;BME280;16501;51.462;14.346;2024-01-27T06:59:50;101557.03;;;3.17;100.00
29569;BME280;16501;51.462;14.346;2024-01-27T07:02:27;101544.28;;;3.02;100.00
29569;BME280;16501;51.462;14.346;2024-01-27T07:04:54;101546.31;;;3.12;100.00
29569;BME280;16501;51.462;14.346;2024-01-27T07:07:23;101552.25;;;3.07;100.00
29569;BME280;16501;51.462;14.346;2024-01-27T07:09:49;101533.97;;;2.99;100.00
29569;BME280;16501;51.462;14.346;2024-01-27T07:12:14;101553.41;;;3.10;100.00
29569;BME280;16501;51.462;14.346;2024-01-27T07:14:40;101547.88;;;3.06;100.00
29569;BME280;16501;51.462;14.346;2024-01-27T07:17:05;101573.63;;;3.10;100.00
29569;BME280;16501;51.462;14.346;2024-01-27T07:19:31;101575.97;;;3.08;100.00
29569;BME280;16501;51.462;14.346;2024-01-27T07:21:57;101541.47;;;2.88;100.00
29569;BME280;16501;51.462;14.346;2024-01-27T07:24:22;101524.41;;;2.82;100.00
29569;BME280;16501;51.462;14.346;2024-01-27T07:26:47;101577.19;;;3.11;100.00
29569;BME280;16501;51.462;14.346;2024-01-27T07:29:12;101575.94;;;3.01;100.00
29569;BME280;16501;51.462;14.346;2024-01-27T07:31:38;101597.38;;;3.15;100.00
29569;BME280;16501;51.462;14.346;2024-01-27T07:34:03;101599.34;;;3.07;100.00
29569;BME280;16501;51.462;14.346;2024-01-27T07:36:31;101593.41;;;3.05;100.00
29569;BME280;16501;51.462;14.346;2024-01-27T07:38:57;101614.03;;;3.18;100.00
29569;BME280;16501;51.462;14.346;2024-01-27T07:41:22;101588.25;;;3.04;100.00
29569;BME280;16501;51.462;14.346;2024-01-27T07:43:48;101601.38;;;3.14;100.00
29569;BME280;16501;51.462;14.346;2024-01-27T07:46:13;101612.06;;;3.15;100.00
29569;BME280;16501;51.462;14.346;2024-01-27T07:48:38;101631.88;;;3.17;100.00
29569;BME280;16501;51.462;14.346;2024-01-27T07:51:04;101619.53;;;3.11;100.00
29569;BME280;16501;51.462;14.346;2024-01-27T07:53:29;101592.56;;;2.97;100.00
29569;BME280;16501;51.462;14.346;2024-01-27T07:55:54;101637.88;;;3.34;100.00
29569;BME280;16501;51.462;14.346;2024-01-27T07:58:21;101629.47;;;3.16;100.00
29569;BME280;16501;51.462;14.346;2024-01-27T08:00:46;101616.75;;;3.08;100.00
29569;BME280;16501;51.462;14.346;2024-01-27T08:03:11;101644.91;;;3.17;100.00
29569;BME280;16501;51.462;14.346;2024-01-27T08:05:37;101638.97;;;3.18;100.00
29569;BME280;16501;51.462;14.346;2024-01-27T08:08:02;101627.88;;;3.11;100.00
29569;BME280;16501;51.462;14.346;2024-01-27T08:10:27;101633.78;;;3.06;100.00
29569;BME280;16501;51.462;14.346;2024-01-27T08:12:53;101653.66;;;3.23;100.00
29569;BME280;16501;51.462;14.346;2024-01-27T08:15:18;101640.94;;;3.14;100.00
29569;BME280;16501;51.462;14.346;2024-01-27T08:17:43;101619.47;;;2.97;100.00
29569;BME280;16501;51.462;14.346;2024-01-27T08:20:09;101659.22;;;3.26;100.00
29569;BME280;16501;51.462;14.346;2024-01-27T08:22:34;101650.50;;;3.20;100.00
29569;BME280;16501;51.462;14.346;2024-01-27T08:24:59;101664.44;;;3.35;100.00
29569;BME280;16501;51.462;14.346;2024-01-27T08:27:25;101645.34;;;3.23;100.00
29569;BME280;16501;51.462;14.346;2024-01-27T08:29:50;101646.56;;;3.29;100.00
29569;BME280;16501;51.462;14.346;2024-01-27T08:32:15;101654.97;;;3.43;100.00
29569;BME280;16501;51.462;14.346;2024-01-27T08:34:40;101660.22;;;3.70;100.00
29569;BME280;16501;51.462;14.346;2024-01-27T08:37:15;101666.91;;;3.62;100.00
29569;BME280;16501;51.462;14.346;2024-01-27T08:39:41;101668.84;;;3.50;100.00
29569;BME280;16501;51.462;14.346;2024-01-27T08:42:06;101677.94;;;3.47;100.00
29569;BME280;16501;51.462;14.346;2024-01-27T08:44:32;101679.13;;;3.50;100.00
29569;BME280;16501;51.462;14.346;2024-01-27T08:46:57;101656.91;;;3.39;100.00
29569;BME280;16501;51.462;14.346;2024-01-27T08:49:22;101663.31;;;3.50;100.00
29569;BME280;16501;51.462;14.346;2024-01-27T08:51:47;101662.44;;;3.39;100.00
29569;BME280;16501;51.462;14.346;2024-01-27T08:54:13;101674.81;;;3.56;100.00
29569;BME280;16501;51.462;14.346;2024-01-27T08:56:41;101675.94;;;3.44;100.00
29569;BME280;16501;51.462;14.346;2024-01-27T08:59:06;101672.78;;;3.46;100.00
29569;BME280;16501;51.462;14.346;2024-01-27T09:01:31;101682.28;;;3.48;100.00
29569;BME280;16501;51.462;14.346;2024-01-27T09:03:57;101704.13;;;3.57;100.00
29569;BME280;16501;51.462;14.346;2024-01-27T09:06:22;101683.47;;;3.44;100.00
29569;BME280;16501;51.462;14.346;2024-01-27T09:08:47;101699.03;;;3.63;100.00
29569;BME280;16501;51.462;14.346;2024-01-27T09:11:13;101687.06;;;3.48;100.00
29569;BME280;16501;51.462;14.346;2024-01-27T09:13:38;101685.06;;;3.48;100.00
29569;BME280;16501;51.462;14.346;2024-01-27T09:16:03;101682.72;;;3.47;100.00
29569;BME280;16501;51.462;14.346;2024-01-27T09:18:28;101716.84;;;3.69;100.00
29569;BME280;16501;51.462;14.346;2024-01-27T09:20:54;101710.53;;;3.68;100.00
29569;BME280;16501;51.462;14.346;2024-01-27T09:23:19;101683.56;;;3.65;100.00
29569;BME280;16501;51.462;14.346;2024-01-27T09:25:44;101694.28;;;3.67;100.00
29569;BME280;16501;51.462;14.346;2024-01-27T09:28:10;101694.28;;;3.67;100.00
29569;BME280;16501;51.462;14.346;2024-01-27T09:30:36;101710.19;;;3.84;100.00
29569;BME280;16501;51.462;14.346;2024-01-27T09:33:01;101695.91;;;3.78;100.00
29569;BME280;16501;51.462;14.346;2024-01-27T09:35:27;101730.91;;;4.12;100.00
29569;BME280;16501;51.462;14.346;2024-01-27T09:37:52;101672.88;;;3.74;100.00
29569;BME280;16501;51.462;14.346;2024-01-27T09:40:18;101693.53;;;3.84;100.00
29569;BME280;16501;51.462;14.346;2024-01-27T09:42:50;101677.66;;;3.74;100.00
29569;BME280;16501;51.462;14.346;2024-01-27T09:45:17;101719.75;;;3.97;100.00
29569;BME280;16501;51.462;14.346;2024-01-27T09:47:42;101705.47;;;3.95;100.00
29569;BME280;16501;51.462;14.346;2024-01-27T09:50:11;101720.94;;;3.96;100.00
29569;BME280;16501;51.462;14.346;2024-01-27T09:52:36;101712.19;;;3.91;100.00
29569;BME280;16501;51.462;14.346;2024-01-27T09:55:02;101714.19;;;3.90;100.00
29569;BME280;16501;51.462;14.346;2024-01-27T09:57:28;101692.38;;;3.85;100.00
29569;BME280;16501;51.462;14.346;2024-01-27T09:59:54;101712.19;;;3.87;100.00
29569;BME280;16501;51.462;14.346;2024-01-27T10:02:21;101726.50;;;4.07;100.00
29569;BME280;16501;51.462;14.346;2024-01-27T10:04:49;101719.34;;;3.95;100.00
29569;BME280;16501;51.462;14.346;2024-01-27T10:07:14;101734.03;;;4.00;100.00
29569;BME280;16501;51.462;14.346;2024-01-27T10:09:39;101720.16;;;3.96;100.00
29569;BME280;16501;51.462;14.346;2024-01-27T10:12:07;101714.97;;;3.91;100.00
29569;BME280;16501;51.462;14.346;2024-01-27T10:14:42;101729.25;;;3.93;100.00
29569;BME280;16501;51.462;14.346;2024-01-27T10:17:20;101730.03;;;3.93;100.00
29569;BME280;16501;51.462;14.346;2024-01-27T10:19:45;101719.75;;;3.90;100.00
29569;BME280;16501;51.462;14.346;2024-01-27T10:22:10;101716.13;;;3.86;100.00
29569;BME280;16501;51.462;14.346;2024-01-27T10:24:36;101712.16;;;3.80;100.00
29569;BME280;16501;51.462;14.346;2024-01-27T10:27:02;101745.13;;;4.00;100.00
29569;BME280;16501;51.462;14.346;2024-01-27T10:29:28;101729.25;;;3.96;100.00
29569;BME280;16501;51.462;14.346;2024-01-27T10:31:54;101735.66;;;4.04;100.00
29569;BME280;16501;51.462;14.346;2024-01-27T10:34:20;101723.72;;;4.04;100.00
29569;BME280;16501;51.462;14.346;2024-01-27T10:36:45;101688.34;;;3.75;100.00
29569;BME280;16501;51.462;14.346;2024-01-27T10:41:44;101744.38;;;4.10;100.00
29569;BME280;16501;51.462;14.346;2024-01-27T10:44:12;101703.09;;;3.90;100.00
29569;BME280;16501;51.462;14.346;2024-01-27T10:46:38;101699.09;;;3.91;100.00
29569;BME280;16501;51.462;14.346;2024-01-27T10:49:04;101742.81;;;4.20;100.00
29569;BME280;16501;51.462;14.346;2024-01-27T10:51:31;101750.75;;;4.28;100.00
29569;BME280;16501;51.462;14.346;2024-01-27T10:54:03;101720.19;;;4.14;100.00
29569;BME280;16501;51.462;14.346;2024-01-27T10:56:32;101727.72;;;4.13;100.00
29569;BME280;16501;51.462;14.346;2024-01-27T10:59:01;101734.88;;;4.18;100.00
29569;BME280;16501;51.462;14.346;2024-01-27T11:01:27;101734.88;;;4.14;100.00
29569;BME280;16501;51.462;14.346;2024-01-27T11:03:54;101742.03;;;4.26;100.00
29569;BME280;16501;51.462;14.346;2024-01-27T11:06:22;101754.75;;;4.42;100.00
29569;BME280;16501;51.462;14.346;2024-01-27T11:08:49;101734.50;;;4.23;100.00
29569;BME280;16501;51.462;14.346;2024-01-27T11:11:14;101751.59;;;4.36;100.00
29569;BME280;16501;51.462;14.346;2024-01-27T11:13:40;101742.88;;;4.38;100.00
29569;BME280;16501;51.462;14.346;2024-01-27T11:16:05;101746.81;;;4.40;100.00
29569;BME280;16501;51.462;14.346;2024-01-27T11:18:31;101742.03;;;4.33;100.00
29569;BME280;16501;51.462;14.346;2024-01-27T11:20:58;101770.25;;;4.36;100.00
29569;BME280;16501;51.462;14.346;2024-01-27T11:23:34;101757.13;;;4.25;100.00
29569;BME280;16501;51.462;14.346;2024-01-27T11:26:07;101756.75;;;4.30;100.00
29569;BME280;16501;51.462;14.346;2024-01-27T11:28:33;101771.00;;;4.32;100.00
29569;BME280;16501;51.462;14.346;2024-01-27T11:31:03;101773.00;;;4.36;100.00
29569;BME280;16501;51.462;14.346;2024-01-27T11:33:28;101764.25;;;4.37;100.00
29569;BME280;16501;51.462;14.346;2024-01-27T11:36:03;101762.28;;;4.27;100.00
29569;BME280;16501;51.462;14.346;2024-01-27T11:38:30;101782.13;;;4.36;100.00
29569;BME280;16501;51.462;14.346;2024-01-27T11:40:56;101767.41;;;4.21;100.00
29569;BME280;16501;51.462;14.346;2024-01-27T11:43:21;101763.81;;;4.17;100.00
29569;BME280;16501;51.462;14.346;2024-01-27T11:45:59;101733.28;;;4.10;100.00
29569;BME280;16501;51.462;14.346;2024-01-27T11:48:25;101794.44;;;4.46;100.00
29569;BME280;16501;51.462;14.346;2024-01-27T11:51:11;101758.69;;;4.23;100.00
29569;BME280;16501;51.462;14.346;2024-01-27T11:53:37;101792.03;;;4.37;100.00
29569;BME280;16501;51.462;14.346;2024-01-27T11:56:05;101799.97;;;4.39;100.00
29569;BME280;16501;51.462;14.346;2024-01-27T11:58:31;101776.16;;;4.23;100.00
29569;BME280;16501;51.462;14.346;2024-01-27T12:00:57;101793.63;;;4.31;100.00
29569;BME280;16501;51.462;14.346;2024-01-27T12:03:23;101782.53;;;4.38;100.00
29569;BME280;16501;51.462;14.346;2024-01-27T12:05:49;101771.03;;;4.36;100.00
29569;BME280;16501;51.462;14.346;2024-01-27T12:08:14;101810.31;;;4.49;100.00
29569;BME280;16501;51.462;14.346;2024-01-27T12:10:39;101816.66;;;4.46;100.00
29569;BME280;16501;51.462;14.346;2024-01-27T12:13:05;101806.72;;;4.34;100.00
29569;BME280;16501;51.462;14.346;2024-01-27T12:15:30;101821.78;;;4.37;100.00
29569;BME280;16501;51.462;14.346;2024-01-27T12:17:55;101818.66;;;4.52;100.00
29569;BME280;16501;51.462;14.346;2024-01-27T12:20:22;101815.09;;;4.45;100.00
29569;BME280;16501;51.462;14.346;2024-01-27T12:22:48;101826.63;;;4.58;100.00
29569;BME280;16501;51.462;14.346;2024-01-27T12:25:16;101821.88;;;4.58;100.00
29569;BME280;16501;51.462;14.346;2024-01-27T12:27:42;101814.72;;;4.53;100.00
29569;BME280;16501;51.462;14.346;2024-01-27T12:30:08;101817.88;;;4.52;100.00
29569;BME280;16501;51.462;14.346;2024-01-27T12:32:33;101828.22;;;4.62;100.00
29569;BME280;16501;51.462;14.346;2024-01-27T12:35:04;101817.47;;;4.50;100.00
29569;BME280;16501;51.462;14.346;2024-01-27T12:37:29;101839.72;;;4.64;100.00